createdAt,value
2018-07-13T00:00:18.522Z,16.90
2018-07-13T00:02:46.758Z,16.90
2018-07-13T00:05:15.445Z,16.90
2018-07-13T00:07:43.619Z,16.80
2018-07-13T00:10:12.471Z,16.90
2018-07-13T00:12:40.491Z,16.90
2018-07-13T00:15:10.625Z,16.90
2018-07-13T00:17:40.335Z,16.90
2018-07-13T00:20:08.367Z,16.80
2018-07-13T00:22:37.487Z,16.80
2018-07-13T00:25:06.365Z,16.90
2018-07-13T00:27:34.853Z,16.90
2018-07-13T00:30:03.357Z,16.90
2018-07-13T00:32:31.478Z,16.70
2018-07-13T00:34:59.470Z,16.60
2018-07-13T00:37:27.661Z,16.70
2018-07-13T00:39:55.621Z,16.70
2018-07-13T00:42:23.986Z,16.70
2018-07-13T00:44:52.893Z,16.80
2018-07-13T00:47:21.872Z,16.70
2018-07-13T00:49:49.968Z,16.70
2018-07-13T00:52:18.170Z,16.80
2018-07-13T00:54:47.970Z,16.80
2018-07-13T00:57:15.992Z,16.70
2018-07-13T00:59:44.966Z,16.80
2018-07-13T01:02:13.140Z,16.70
2018-07-13T01:04:41.716Z,16.60
2018-07-13T01:07:11.386Z,16.70
2018-07-13T01:09:41.142Z,16.70
2018-07-13T01:12:09.462Z,16.70
2018-07-13T01:14:37.529Z,16.50
2018-07-13T01:17:05.669Z,16.30
2018-07-13T01:19:33.782Z,16.40
2018-07-13T01:22:02.343Z,16.50
2018-07-13T01:24:31.463Z,16.30
2018-07-13T01:26:59.908Z,16.20
2018-07-13T01:29:28.379Z,16.30
2018-07-13T01:31:56.410Z,16.40
2018-07-13T01:34:24.535Z,16.30
2018-07-13T01:36:53.537Z,16.30
2018-07-13T01:39:21.550Z,16.30
2018-07-13T01:41:49.581Z,16.30
2018-07-13T01:44:17.570Z,16.30
2018-07-13T01:46:45.916Z,16.30
2018-07-13T01:49:14.093Z,16.10
2018-07-13T01:51:42.154Z,15.90
2018-07-13T01:54:10.375Z,16.00
2018-07-13T01:56:38.631Z,16.00
2018-07-13T01:59:08.469Z,16.00
2018-07-13T02:04:04.614Z,16.00
2018-07-13T02:06:33.533Z,16.10
2018-07-13T02:09:01.930Z,16.10
2018-07-13T02:11:29.894Z,16.10
2018-07-13T02:13:57.859Z,16.10
2018-07-13T02:16:25.872Z,16.20
2018-07-13T02:18:53.904Z,16.10
2018-07-13T02:21:22.030Z,16.20
2018-07-13T02:23:49.995Z,16.20
2018-07-13T02:26:18.044Z,16.20
2018-07-13T02:28:46.212Z,16.20
2018-07-13T02:31:14.167Z,16.20
2018-07-13T02:33:43.234Z,16.20
2018-07-13T02:36:11.293Z,16.20
2018-07-13T02:38:39.304Z,16.20
2018-07-13T02:41:07.366Z,16.20
2018-07-13T02:43:35.338Z,16.20
2018-07-13T02:46:03.434Z,16.30
2018-07-13T02:48:31.405Z,16.30
2018-07-13T02:50:59.386Z,16.20
2018-07-13T02:53:27.675Z,16.20
2018-07-13T02:55:55.694Z,16.20
2018-07-13T02:58:23.829Z,16.20
2018-07-13T03:00:51.882Z,16.20
2018-07-13T03:03:20.042Z,16.10
2018-07-13T03:05:48.433Z,16.10
2018-07-13T03:08:16.630Z,16.00
2018-07-13T03:10:45.067Z,16.00
2018-07-13T03:13:13.145Z,16.10
2018-07-13T03:15:41.130Z,16.00
2018-07-13T03:18:09.410Z,16.00
2018-07-13T03:20:38.250Z,15.90
2018-07-13T03:23:06.356Z,15.90
2018-07-13T03:25:34.639Z,15.80
2018-07-13T03:30:30.603Z,15.80
2018-07-13T03:33:00.220Z,15.70
2018-07-13T03:35:28.270Z,15.70
2018-07-13T03:37:57.235Z,15.70
2018-07-13T03:42:53.471Z,15.70
2018-07-13T03:45:21.594Z,15.60
2018-07-13T03:47:49.890Z,15.70
2018-07-13T03:50:19.121Z,15.60
2018-07-13T03:52:47.189Z,15.50
2018-07-13T03:55:15.189Z,15.50
2018-07-13T03:57:44.360Z,15.50
2018-07-13T04:00:12.314Z,15.50
2018-07-13T04:02:40.686Z,15.50
2018-07-13T04:05:08.874Z,15.50
2018-07-13T04:15:01.455Z,15.50
2018-07-13T04:17:29.789Z,15.50
2018-07-13T04:19:57.835Z,15.50
2018-07-13T04:24:54.151Z,15.50
2018-07-13T04:27:22.470Z,15.50
2018-07-13T04:29:51.033Z,15.40
2018-07-13T04:32:19.010Z,15.50
2018-07-13T04:34:47.116Z,15.60
2018-07-13T04:37:15.193Z,15.60
2018-07-13T04:39:43.285Z,15.60
2018-07-13T04:42:12.157Z,15.70
2018-07-13T04:44:40.836Z,15.80
2018-07-13T04:47:08.963Z,15.70
2018-07-13T04:49:37.533Z,15.80
2018-07-13T04:52:05.650Z,15.90
2018-07-13T04:54:35.267Z,15.90
2018-07-13T04:57:03.834Z,15.90
2018-07-13T04:59:32.153Z,15.90
2018-07-13T05:02:00.597Z,15.90
2018-07-13T05:04:28.956Z,16.10
2018-07-13T05:06:57.262Z,16.00
2018-07-13T05:09:25.918Z,16.00
2018-07-13T05:11:54.384Z,15.90
2018-07-13T05:14:22.592Z,16.10
2018-07-13T05:16:50.621Z,16.10
2018-07-13T05:19:18.712Z,16.10
2018-07-13T05:21:47.644Z,16.10
2018-07-13T05:24:18.337Z,16.10
2018-07-13T05:26:47.414Z,16.10
2018-07-13T05:29:15.557Z,16.30
2018-07-13T05:31:43.626Z,16.20
2018-07-13T05:34:12.610Z,16.30
2018-07-13T05:36:40.765Z,16.30
2018-07-13T05:39:11.401Z,16.30
2018-07-13T05:41:40.705Z,16.40
2018-07-13T05:44:08.836Z,16.40
2018-07-13T05:46:37.078Z,16.40
2018-07-13T05:49:05.506Z,16.40
2018-07-13T05:51:37.710Z,16.40
2018-07-13T05:54:06.078Z,16.50
2018-07-13T05:56:34.353Z,16.60
2018-07-13T05:59:04.382Z,16.80
2018-07-13T06:01:34.768Z,16.90
2018-07-13T06:04:03.112Z,17.00
2018-07-13T06:06:31.494Z,17.00
2018-07-13T06:08:59.826Z,17.30
2018-07-13T06:11:28.750Z,17.40
2018-07-13T06:13:56.811Z,17.50
2018-07-13T06:16:24.914Z,17.50
2018-07-13T06:18:52.934Z,17.50
2018-07-13T06:21:21.777Z,17.50
2018-07-13T06:23:50.036Z,17.70
2018-07-13T06:26:18.251Z,17.80
2018-07-13T06:28:46.338Z,17.90
2018-07-13T06:31:15.362Z,18.00
2018-07-13T06:33:43.393Z,18.20
2018-07-13T06:36:11.677Z,18.30
2018-07-13T06:38:40.141Z,18.20
2018-07-13T06:41:08.424Z,18.30
2018-07-13T06:43:37.351Z,18.40
2018-07-13T06:46:07.105Z,18.50
2018-07-13T06:48:35.914Z,18.60
2018-07-13T06:51:04.713Z,18.60
2018-07-13T06:53:33.505Z,19.20
2018-07-13T06:56:01.607Z,20.60
2018-07-13T06:58:40.797Z,22.10
2018-07-13T07:01:09.461Z,23.00
2018-07-13T07:04:42.670Z,23.00
2018-07-13T07:07:16.695Z,22.90
2018-07-13T07:09:50.193Z,23.80
2018-07-13T07:12:58.538Z,25.20
2018-07-13T07:15:27.787Z,25.60
2018-07-13T07:17:56.095Z,23.50
2018-07-13T07:20:25.881Z,25.10
2018-07-13T07:22:53.899Z,25.80
2018-07-13T07:25:22.342Z,26.10
2018-07-13T07:27:51.736Z,26.20
2018-07-13T07:30:21.348Z,26.80
2018-07-13T07:32:49.611Z,27.40
2018-07-13T07:35:17.734Z,26.30
2018-07-13T07:37:46.815Z,27.20
2018-07-13T07:40:15.090Z,28.20
2018-07-13T07:42:43.236Z,27.70
2018-07-13T07:45:11.440Z,26.70
2018-07-13T07:47:39.667Z,27.90
2018-07-13T07:50:08.927Z,28.10
2018-07-13T07:52:37.535Z,28.00
2018-07-13T07:55:05.625Z,28.70
2018-07-13T07:57:33.682Z,28.40
2018-07-13T08:00:01.971Z,29.60
2018-07-13T08:02:30.039Z,28.70
2018-07-13T08:04:59.433Z,28.50
2018-07-13T08:07:28.747Z,27.60
2018-07-13T08:09:57.057Z,27.80
2018-07-13T08:12:25.598Z,28.50
2018-07-13T08:14:56.370Z,29.10
2018-07-13T08:17:24.630Z,28.40
2018-07-13T08:19:54.385Z,28.60
2018-07-13T08:22:33.754Z,28.70
2018-07-13T08:25:04.202Z,30.10
2018-07-13T08:27:36.538Z,29.30
2018-07-13T08:30:08.127Z,29.00
2018-07-13T08:32:36.286Z,30.10
2018-07-13T08:35:04.510Z,27.50
2018-07-13T08:40:02.606Z,28.30
2018-07-13T08:44:59.922Z,29.50
2018-07-13T08:47:28.641Z,28.50
2018-07-13T08:49:56.992Z,28.60
2018-07-13T08:52:25.471Z,29.10
2018-07-13T08:54:53.774Z,29.90
2018-07-13T08:59:53.394Z,29.20
2018-07-13T09:02:23.418Z,29.40
2018-07-13T09:04:52.686Z,29.70
2018-07-13T09:07:23.115Z,29.40
2018-07-13T09:09:53.293Z,28.70
2018-07-13T09:12:29.778Z,28.60
2018-07-13T09:14:57.867Z,28.80
2018-07-13T09:17:27.621Z,28.90
2018-07-13T09:19:55.620Z,29.60
2018-07-13T09:22:28.396Z,28.70
2018-07-13T09:24:59.146Z,28.60
2018-07-13T09:27:27.151Z,30.00
2018-07-13T09:29:55.791Z,30.00
2018-07-13T09:32:24.175Z,30.10
2018-07-13T09:34:53.856Z,29.20
2018-07-13T09:37:22.207Z,28.60
2018-07-13T09:39:55.589Z,28.50
2018-07-13T09:42:24.360Z,28.60
2018-07-13T09:44:52.868Z,29.20
2018-07-13T09:47:23.368Z,29.00
2018-07-13T09:49:52.257Z,28.30
2018-07-13T09:52:22.190Z,30.00
2018-07-13T09:54:51.786Z,28.70
2018-07-13T09:57:20.174Z,27.80
2018-07-13T10:02:27.836Z,26.70
2018-07-13T10:04:58.515Z,26.30
2018-07-13T10:07:27.818Z,26.00
2018-07-13T10:09:56.834Z,25.60
2018-07-13T10:12:25.038Z,25.80
2018-07-13T10:14:55.104Z,25.90
2018-07-13T10:17:24.592Z,25.90
2018-07-13T10:19:52.981Z,25.80
2018-07-13T10:22:25.513Z,25.70
2018-07-13T10:24:56.125Z,25.80
2018-07-13T10:27:27.093Z,25.70
2018-07-13T10:29:57.345Z,25.70
2018-07-13T10:32:25.826Z,25.80
2018-07-13T10:34:54.383Z,25.80
2018-07-13T10:37:23.886Z,25.80
2018-07-13T10:39:52.896Z,25.90
2018-07-13T10:42:21.888Z,26.10
2018-07-13T10:44:50.063Z,25.60
2018-07-13T10:47:21.741Z,26.10
2018-07-13T10:49:50.549Z,26.20
2018-07-13T10:52:18.577Z,26.20
2018-07-13T10:54:49.206Z,26.60
2018-07-13T10:57:18.817Z,26.60
2018-07-13T10:59:47.693Z,26.20
2018-07-13T11:02:15.761Z,26.20
2018-07-13T11:04:44.752Z,25.80
2018-07-13T11:07:13.080Z,26.40
2018-07-13T11:09:42.017Z,26.30
2018-07-13T11:12:11.782Z,26.50
2018-07-13T11:14:41.320Z,26.40
2018-07-13T11:17:11.417Z,26.60
2018-07-13T11:19:39.398Z,26.40
2018-07-13T11:22:08.376Z,26.20
2018-07-13T11:24:36.798Z,26.50
2018-07-13T11:27:04.817Z,26.40
2018-07-13T11:29:33.262Z,26.10
2018-07-13T11:32:02.771Z,26.10
2018-07-13T11:34:31.080Z,25.90
2018-07-13T11:37:00.460Z,26.00
2018-07-13T11:39:29.219Z,25.80
2018-07-13T11:41:57.386Z,25.70
2018-07-13T11:44:26.849Z,26.30
2018-07-13T11:46:57.327Z,26.00
2018-07-13T11:49:25.304Z,26.50
2018-07-13T11:51:54.869Z,26.60
2018-07-13T11:54:28.174Z,26.70
2018-07-13T11:56:57.332Z,26.60
2018-07-13T11:59:25.748Z,26.10
2018-07-13T12:01:54.291Z,26.20
2018-07-13T12:04:22.497Z,25.90
2018-07-13T12:06:50.734Z,26.40
2018-07-13T12:09:18.790Z,26.40
2018-07-13T12:11:46.854Z,26.70
2018-07-13T12:14:15.477Z,27.00
2018-07-13T12:16:43.921Z,26.50
2018-07-13T12:19:13.657Z,26.80
2018-07-13T12:21:42.649Z,26.70
2018-07-13T12:24:11.355Z,26.50
2018-07-13T12:26:40.738Z,26.20
2018-07-13T12:29:09.794Z,26.30
2018-07-13T12:31:39.277Z,26.60
2018-07-13T12:34:09.542Z,27.00
2018-07-13T12:36:38.552Z,27.10
2018-07-13T12:39:08.649Z,27.20
2018-07-13T12:41:40.063Z,27.30
2018-07-13T12:44:12.225Z,27.40
2018-07-13T12:46:42.426Z,27.30
2018-07-13T12:49:12.917Z,26.80
2018-07-13T12:51:41.230Z,27.20
2018-07-13T12:54:10.364Z,26.70
2018-07-13T12:59:12.837Z,27.00
2018-07-13T13:01:41.902Z,26.90
2018-07-13T13:04:12.022Z,27.10
2018-07-13T13:06:40.814Z,27.00
2018-07-13T13:09:10.916Z,27.30
2018-07-13T13:11:39.102Z,27.20
2018-07-13T13:14:07.145Z,27.30
2018-07-13T13:16:35.421Z,27.40
2018-07-13T13:19:03.803Z,27.20
2018-07-13T13:21:33.132Z,27.40
2018-07-13T13:24:02.381Z,27.50
2018-07-13T13:26:30.380Z,27.40
2018-07-13T13:28:59.091Z,27.10
2018-07-13T13:31:28.718Z,27.30
2018-07-13T13:33:59.826Z,27.40
2018-07-13T13:36:34.297Z,27.70
2018-07-13T13:39:09.635Z,27.80
2018-07-13T13:41:43.703Z,27.60
2018-07-13T13:44:12.095Z,27.70
2018-07-13T13:46:40.433Z,28.00
2018-07-13T13:49:08.458Z,27.60
2018-07-13T13:51:37.923Z,27.30
2018-07-13T13:54:06.190Z,27.00
2018-07-13T13:56:35.008Z,26.70
2018-07-13T13:59:02.993Z,26.80
2018-07-13T14:01:31.530Z,27.10
2018-07-13T14:04:02.654Z,27.30
2018-07-13T14:06:32.235Z,27.40
2018-07-13T14:09:00.665Z,27.40
2018-07-13T14:11:29.082Z,27.50
2018-07-13T14:13:57.410Z,27.60
2018-07-13T14:16:25.733Z,27.60
2018-07-13T14:18:54.377Z,27.50
2018-07-13T14:21:22.995Z,27.50
2018-07-13T14:23:52.331Z,27.90
2018-07-13T14:26:21.657Z,27.90
2018-07-13T14:28:50.413Z,27.90
2018-07-13T14:31:19.610Z,27.80
2018-07-13T14:33:48.071Z,27.10
2018-07-13T14:36:20.059Z,27.30
2018-07-13T14:38:49.538Z,27.30
2018-07-13T14:41:20.393Z,27.20
2018-07-13T14:43:48.592Z,27.00
2018-07-13T14:46:16.803Z,27.00
2018-07-13T14:48:45.087Z,27.00
2018-07-13T14:51:13.336Z,27.10
2018-07-13T14:53:42.695Z,27.30
2018-07-13T14:56:12.454Z,27.40
2018-07-13T14:58:40.836Z,27.00
2018-07-13T15:01:10.002Z,27.00
2018-07-13T15:03:38.603Z,27.00
2018-07-13T15:06:07.227Z,26.90
2018-07-13T15:08:35.841Z,26.90
2018-07-13T15:11:04.544Z,26.90
2018-07-13T15:13:32.966Z,26.90
2018-07-13T15:16:01.358Z,26.90
2018-07-13T15:18:30.659Z,26.80
2018-07-13T15:20:59.805Z,26.70
2018-07-13T15:23:28.061Z,26.50
2018-07-13T15:25:56.733Z,26.60
2018-07-13T15:28:25.361Z,26.40
2018-07-13T15:30:53.368Z,26.40
2018-07-13T15:33:21.767Z,26.40
2018-07-13T15:35:50.961Z,26.40
2018-07-13T15:38:19.822Z,26.40
2018-07-13T15:40:49.956Z,26.90
2018-07-13T15:43:19.647Z,27.10
2018-07-13T15:48:17.610Z,27.20
2018-07-13T15:50:49.636Z,26.80
2018-07-13T15:53:18.231Z,27.00
2018-07-13T15:55:51.770Z,27.30
2018-07-13T15:58:22.109Z,27.00
2018-07-13T16:00:51.333Z,26.80
2018-07-13T16:03:19.787Z,26.50
2018-07-13T16:05:48.237Z,26.70
2018-07-13T16:08:20.438Z,26.70
2018-07-13T16:10:48.852Z,26.80
2018-07-13T16:13:17.241Z,26.50
2018-07-13T16:15:46.103Z,26.10
2018-07-13T16:18:16.341Z,26.20
2018-07-13T16:20:45.812Z,26.20
2018-07-13T16:23:15.169Z,26.00
2018-07-13T16:25:44.464Z,25.90
2018-07-13T16:28:14.648Z,25.80
2018-07-13T16:30:46.951Z,25.90
2018-07-13T16:33:15.243Z,25.80
2018-07-13T16:35:43.467Z,25.60
2018-07-13T16:38:11.685Z,25.70
2018-07-13T16:40:39.770Z,25.70
2018-07-13T16:43:10.151Z,25.90
2018-07-13T16:45:40.003Z,25.90
2018-07-13T16:48:08.273Z,26.00
2018-07-13T16:50:37.374Z,26.00
2018-07-13T16:53:06.232Z,26.00
2018-07-13T16:55:34.608Z,26.00
2018-07-13T16:58:03.713Z,26.00
2018-07-13T17:00:32.028Z,26.00
2018-07-13T17:03:00.881Z,25.90
2018-07-13T17:05:30.320Z,26.00
2018-07-13T17:07:59.016Z,26.00
2018-07-13T17:10:27.796Z,25.90
2018-07-13T17:12:59.601Z,26.00
2018-07-13T17:15:29.948Z,26.00
2018-07-13T17:22:55.092Z,25.90
2018-07-13T17:25:23.763Z,25.80
2018-07-13T17:27:54.492Z,25.70
2018-07-13T17:30:22.878Z,25.70
2018-07-13T17:32:51.780Z,25.60
2018-07-13T17:35:19.946Z,25.50
2018-07-13T17:37:48.069Z,25.40
2018-07-13T17:40:17.255Z,25.40
2018-07-13T17:42:45.534Z,25.40
2018-07-13T17:45:14.690Z,25.30
2018-07-13T17:47:42.943Z,25.20
2018-07-13T17:50:13.312Z,25.20
2018-07-13T17:52:44.773Z,25.20
2018-07-13T17:55:15.302Z,25.20
2018-07-13T17:57:44.326Z,25.20
2018-07-13T18:00:20.700Z,25.20
2018-07-13T18:02:50.475Z,25.20
2018-07-13T18:05:18.443Z,25.10
2018-07-13T18:07:46.601Z,25.20
2018-07-13T18:10:14.791Z,25.10
2018-07-13T18:12:43.091Z,24.90
2018-07-13T18:15:11.102Z,25.00
2018-07-13T18:17:39.332Z,24.90
2018-07-13T18:20:08.445Z,24.90
2018-07-13T18:22:37.313Z,24.90
2018-07-13T18:25:06.908Z,24.90
2018-07-13T18:27:35.252Z,24.90
2018-07-13T18:30:04.098Z,24.80
2018-07-13T18:32:33.660Z,24.70
2018-07-13T18:35:04.612Z,24.70
2018-07-13T18:37:32.682Z,24.50
2018-07-13T18:40:02.007Z,24.40
2018-07-13T18:42:32.076Z,24.30
2018-07-13T18:45:01.477Z,24.20
2018-07-13T18:49:59.337Z,24.10
2018-07-13T18:52:27.336Z,23.90
2018-07-13T18:54:58.549Z,23.80
2018-07-13T18:57:29.083Z,23.80
2018-07-13T18:59:57.945Z,23.70
2018-07-13T19:02:26.328Z,23.70
2018-07-13T19:04:56.382Z,23.50
2018-07-13T19:07:26.697Z,23.50
2018-07-13T19:09:59.985Z,23.40
2018-07-13T19:12:28.966Z,23.30
2018-07-13T19:14:57.615Z,23.20
2018-07-13T19:17:25.781Z,23.20
2018-07-13T19:19:55.448Z,23.10
2018-07-13T19:22:32.581Z,23.10
2018-07-13T19:25:01.800Z,23.10
2018-07-13T19:27:32.172Z,22.90
2018-07-13T19:30:01.614Z,22.80
2018-07-13T19:32:32.338Z,22.70
2018-07-13T19:35:00.669Z,22.70
2018-07-13T19:37:30.809Z,22.60
2018-07-13T19:39:59.953Z,22.50
2018-07-13T19:42:33.380Z,22.50
2018-07-13T19:47:31.805Z,22.30
2018-07-13T19:50:00.513Z,22.20
2018-07-13T19:52:28.669Z,22.20
2018-07-13T19:54:58.125Z,22.10
2018-07-13T19:57:30.918Z,22.10
2018-07-13T20:00:01.000Z,22.10
2018-07-13T20:02:31.765Z,22.00
2018-07-13T20:05:02.786Z,22.00
2018-07-13T20:07:32.201Z,22.00
2018-07-13T20:10:01.607Z,21.90
2018-07-13T20:12:30.881Z,21.80
2018-07-13T20:14:59.661Z,21.80
2018-07-13T20:17:33.184Z,21.80
2018-07-13T20:20:01.669Z,21.80
2018-07-13T20:25:03.394Z,21.70
2018-07-13T20:27:32.444Z,21.70
2018-07-13T20:30:03.169Z,21.60
2018-07-13T20:32:31.816Z,21.60
2018-07-13T20:35:01.889Z,21.60
2018-07-13T20:37:33.977Z,21.60
2018-07-13T20:40:06.896Z,21.60
2018-07-13T20:42:35.246Z,21.50
2018-07-13T20:45:04.384Z,21.50
2018-07-13T20:47:33.296Z,21.40
2018-07-13T20:50:01.465Z,21.40
2018-07-13T20:54:58.844Z,21.30
2018-07-13T20:59:56.001Z,21.30
2018-07-13T21:02:25.165Z,21.20
2018-07-13T21:04:56.114Z,21.20
2018-07-13T21:07:24.483Z,21.20
2018-07-13T21:09:53.632Z,21.20
2018-07-13T21:12:22.328Z,21.20
2018-07-13T21:14:52.673Z,21.20
2018-07-13T21:17:20.832Z,21.10
2018-07-13T21:19:50.688Z,21.10
2018-07-13T21:22:20.005Z,21.10
2018-07-13T21:24:49.282Z,20.90
2018-07-13T21:27:18.518Z,20.90
2018-07-13T21:29:47.817Z,20.80
2018-07-13T21:32:19.294Z,20.80
2018-07-13T21:34:47.669Z,20.80
2018-07-13T21:37:23.189Z,20.80
2018-07-13T21:39:52.598Z,20.80
2018-07-13T21:42:21.136Z,20.70
2018-07-13T21:44:50.793Z,20.70
2018-07-13T21:47:19.402Z,20.70
2018-07-13T21:49:48.092Z,20.60
2018-07-13T21:52:20.749Z,20.60
2018-07-13T21:54:51.092Z,20.60
2018-07-13T21:57:19.569Z,20.60
2018-07-13T21:59:47.744Z,20.50
2018-07-13T22:02:16.249Z,20.50
2018-07-13T22:04:44.642Z,20.40
2018-07-13T22:07:20.086Z,20.30
2018-07-13T22:09:50.412Z,20.30
2018-07-13T22:12:18.661Z,20.20
2018-07-13T22:14:46.725Z,20.20
2018-07-13T22:17:14.742Z,20.30
2018-07-13T22:19:43.133Z,20.20
2018-07-13T22:22:11.136Z,20.20
2018-07-13T22:24:39.168Z,20.20
2018-07-13T22:27:07.314Z,20.20
2018-07-13T22:29:44.801Z,20.30
2018-07-13T22:32:13.965Z,20.30
2018-07-13T22:34:42.207Z,20.30
2018-07-13T22:37:10.805Z,20.40
2018-07-13T22:39:39.442Z,20.30
2018-07-13T22:42:07.538Z,20.30
2018-07-13T22:44:35.820Z,20.30
2018-07-13T22:47:04.402Z,20.20
2018-07-13T22:49:33.159Z,20.20
2018-07-13T22:52:01.824Z,20.20
2018-07-13T22:54:31.610Z,20.20
2018-07-13T22:57:01.300Z,20.10
2018-07-13T22:59:30.148Z,19.80
2018-07-13T23:01:58.316Z,19.50
2018-07-13T23:04:29.931Z,19.50
2018-07-13T23:06:57.997Z,19.30
2018-07-13T23:09:26.130Z,19.00
2018-07-13T23:14:22.117Z,18.80
2018-07-13T23:16:50.472Z,18.90
2018-07-13T23:19:18.985Z,18.90
2018-07-13T23:21:47.206Z,18.90
2018-07-13T23:24:15.465Z,18.90
2018-07-13T23:26:44.890Z,19.00
2018-07-13T23:31:42.191Z,18.90
2018-07-13T23:34:10.159Z,19.10
2018-07-13T23:36:38.759Z,19.10
2018-07-13T23:39:07.225Z,19.00
2018-07-13T23:41:36.504Z,18.90
2018-07-13T23:44:04.745Z,18.90
2018-07-13T23:46:34.399Z,18.90
2018-07-13T23:49:02.792Z,18.90
2018-07-13T23:51:31.729Z,18.80
2018-07-13T23:56:27.536Z,18.70
2018-07-13T23:58:56.384Z,18.70
